createdAt,value
2023-04-25T00:00:38.011Z,100241.19
2023-04-25T00:03:06.550Z,100240.22
2023-04-25T00:05:35.030Z,100239.38
2023-04-25T00:08:02.954Z,100235.75
2023-04-25T00:10:30.613Z,100237.56
2023-04-25T00:12:59.876Z,100248.84
2023-04-25T00:15:30.963Z,100245.50
2023-04-25T00:18:00.594Z,100248.63
2023-04-25T00:20:28.384Z,100246.34
2023-04-25T00:22:56.719Z,100246.94
2023-04-25T00:25:24.892Z,100248.84
2023-04-25T00:27:52.521Z,100254.28
2023-04-25T00:30:20.397Z,100260.25
2023-04-25T00:32:48.064Z,100258.44
2023-04-25T00:35:17.790Z,100259.44
2023-04-25T00:37:45.831Z,100257.75
2023-04-25T00:40:15.271Z,100253.44
2023-04-25T00:42:43.790Z,100254.13
2023-04-25T00:45:15.731Z,100256.06
2023-04-25T00:47:43.883Z,100261.09
2023-04-25T00:50:12.435Z,100253.16
2023-04-25T00:52:44.206Z,100255.81
2023-04-25T00:55:12.749Z,100252.31
2023-04-25T00:57:40.993Z,100255.81
2023-04-25T01:00:11.811Z,100255.81
2023-04-25T01:02:41.560Z,100253.91
2023-04-25T01:05:10.320Z,100256.41
2023-04-25T01:07:38.361Z,100245.13
2023-04-25T01:10:08.793Z,100251.25
2023-04-25T01:12:36.529Z,100251.97
2023-04-25T01:15:05.234Z,100259.19
2023-04-25T01:17:34.260Z,100254.75
2023-04-25T01:20:05.552Z,100255.44
2023-04-25T01:22:35.275Z,100253.91
2023-04-25T01:25:03.877Z,100265.31
2023-04-25T01:27:32.993Z,100258.22
2023-04-25T01:30:01.792Z,100259.06
2023-04-25T01:32:32.760Z,100262.81
2023-04-25T01:35:00.417Z,100261.84
2023-04-25T01:37:28.031Z,100268.81
2023-04-25T01:39:57.718Z,100275.06
2023-04-25T01:42:25.900Z,100275.06
2023-04-25T01:44:54.333Z,100278.41
2023-04-25T01:47:21.990Z,100277.44
2023-04-25T01:49:49.880Z,100273.13
2023-04-25T01:52:17.702Z,100273.25
2023-04-25T01:54:46.149Z,100279.94
2023-04-25T01:57:17.618Z,100281.19
2023-04-25T01:59:46.517Z,100276.72
2023-04-25T02:02:22.387Z,100284.53
2023-04-25T02:04:53.883Z,100289.81
2023-04-25T02:07:23.608Z,100294.88
2023-04-25T02:09:53.782Z,100293.31
2023-04-25T02:12:27.130Z,100289.81
2023-04-25T02:15:15.497Z,100286.34
2023-04-25T02:17:53.502Z,100291.03
2023-04-25T02:20:24.859Z,100304.38
2023-04-25T02:22:53.159Z,100292.84
2023-04-25T02:25:22.515Z,100301.88
2023-04-25T02:27:52.271Z,100296.44
2023-04-25T02:30:19.955Z,100302.84
2023-04-25T02:32:49.885Z,100299.44
2023-04-25T02:35:17.565Z,100306.69
2023-04-25T02:37:47.461Z,100311.13
2023-04-25T02:40:15.097Z,100318.09
2023-04-25T02:42:42.731Z,100309.94
2023-04-25T02:45:15.996Z,100313.06
2023-04-25T02:47:43.693Z,100317.50
2023-04-25T02:50:13.168Z,100318.22
2023-04-25T02:52:43.243Z,100317.13
2023-04-25T02:55:18.060Z,100328.53
2023-04-25T02:57:47.965Z,100331.44
2023-04-25T03:00:33.933Z,100336.97
2023-04-25T03:03:01.721Z,100335.06
2023-04-25T03:05:30.340Z,100343.56
2023-04-25T03:07:57.917Z,100339.97
2023-04-25T03:10:28.571Z,100337.22
2023-04-25T03:12:59.976Z,100338.03
2023-04-25T03:15:27.664Z,100345.97
2023-04-25T03:17:56.687Z,100351.63
2023-04-25T03:20:25.883Z,100357.75
2023-04-25T03:22:53.686Z,100352.81
2023-04-25T03:25:21.820Z,100354.63
2023-04-25T03:27:49.871Z,100351.28
2023-04-25T03:30:17.465Z,100352.25
2023-04-25T03:32:51.914Z,100363.03
2023-04-25T03:35:21.708Z,100368.47
2023-04-25T03:37:50.039Z,100371.94
2023-04-25T03:40:24.158Z,100364.84
2023-04-25T03:43:43.852Z,100374.47
2023-04-25T03:46:15.057Z,100372.91
2023-04-25T03:48:43.373Z,100374.72
2023-04-25T03:51:16.610Z,100377.34
2023-04-25T03:56:41.864Z,100374.00
2023-04-25T03:59:18.585Z,100378.41
2023-04-25T04:01:46.960Z,100382.03
2023-04-25T04:04:14.836Z,100383.00
2023-04-25T04:06:44.190Z,100384.81
2023-04-25T04:09:21.448Z,100390.22
2023-04-25T04:11:50.952Z,100385.16
2023-04-25T04:14:20.925Z,100387.78
2023-04-25T04:17:14.400Z,100395.84
2023-04-25T04:19:43.888Z,100394.19
2023-04-25T04:22:20.413Z,100399.59
2023-04-25T04:24:55.174Z,100403.44
2023-04-25T04:27:42.898Z,100405.22
2023-04-25T04:30:26.998Z,100415.06
2023-04-25T04:32:59.911Z,100409.78
2023-04-25T04:35:27.597Z,100409.19
2023-04-25T04:37:57.874Z,100402.09
2023-04-25T04:40:31.346Z,100403.91
2023-04-25T04:43:09.793Z,100406.53
2023-04-25T04:45:41.290Z,100411.09
2023-04-25T04:48:35.120Z,100422.28
2023-04-25T04:51:18.125Z,100422.63
2023-04-25T04:53:59.200Z,100417.22
2023-04-25T04:56:49.766Z,100426.09
2023-04-25T04:59:46.752Z,100425.25
2023-04-25T05:02:33.235Z,100430.53
2023-04-25T05:05:24.175Z,100433.94
2023-04-25T05:08:00.951Z,100442.69
2023-04-25T05:10:52.898Z,100444.25
2023-04-25T05:13:59.873Z,100442.69
2023-04-25T05:16:55.554Z,100443.53
2023-04-25T05:19:48.381Z,100445.34
2023-04-25T05:22:42.543Z,100450.63
2023-04-25T05:25:17.748Z,100461.19
2023-04-25T05:28:25.454Z,100462.16
2023-04-25T05:31:11.016Z,100460.34
2023-04-25T05:34:10.894Z,100466.94
2023-04-25T05:36:53.770Z,100469.47
2023-04-25T05:39:22.304Z,100468.50
2023-04-25T05:42:08.262Z,100469.97
2023-04-25T05:44:55.554Z,100475.75
2023-04-25T05:47:37.950Z,100477.16
2023-04-25T05:50:11.749Z,100478.47
2023-04-25T05:52:53.959Z,100481.75
2023-04-25T05:55:30.201Z,100492.09
2023-04-25T05:57:59.781Z,100500.50
2023-04-25T06:00:29.463Z,100506.75
2023-04-25T06:02:58.016Z,100503.03
2023-04-25T06:05:25.927Z,100501.13
2023-04-25T06:07:55.278Z,100501.25
2023-04-25T06:10:26.645Z,100513.50
2023-04-25T06:12:54.870Z,100508.91
2023-04-25T06:15:28.538Z,100514.09
2023-04-25T06:17:58.121Z,100512.19
2023-04-25T06:20:26.072Z,100514.56
2023-04-25T06:22:56.064Z,100523.00
2023-04-25T06:25:33.260Z,100523.00
2023-04-25T06:28:01.420Z,100521.81
2023-04-25T06:30:29.069Z,100523.28
2023-04-25T06:33:03.823Z,100534.78
2023-04-25T06:35:33.146Z,100534.69
2023-04-25T06:38:00.881Z,100537.56
2023-04-25T06:40:29.153Z,100532.91
2023-04-25T06:42:57.518Z,100528.56
2023-04-25T06:45:55.408Z,100528.69
2023-04-25T06:48:27.146Z,100537.22
2023-04-25T06:50:57.402Z,100540.59
2023-04-25T06:53:25.989Z,100539.53
2023-04-25T06:55:59.898Z,100538.69
2023-04-25T06:58:36.017Z,100542.75
2023-04-25T07:01:15.136Z,100546.03
2023-04-25T07:06:43.545Z,100551.31
2023-04-25T07:09:14.982Z,100551.69
2023-04-25T07:11:50.880Z,100556.13
2023-04-25T07:14:19.477Z,100557.47
2023-04-25T07:16:47.619Z,100560.09
2023-04-25T07:19:16.736Z,100565.63
2023-04-25T07:21:46.668Z,100562.38
2023-04-25T07:24:15.268Z,100568.03
2023-04-25T07:26:46.936Z,100578.59
2023-04-25T07:29:24.546Z,100570.31
2023-04-25T07:31:52.265Z,100570.56
2023-04-25T07:34:23.795Z,100578.03
2023-04-25T07:36:51.454Z,100570.44
2023-04-25T07:39:19.960Z,100568.41
2023-04-25T07:41:47.833Z,100565.00
2023-04-25T07:44:21.999Z,100577.28
2023-04-25T07:46:49.786Z,100571.50
2023-04-25T07:49:17.440Z,100578.22
2023-04-25T07:51:47.875Z,100589.19
2023-04-25T07:54:19.891Z,100586.16
2023-04-25T07:56:53.923Z,100585.41
2023-04-25T07:59:30.030Z,100584.69
2023-04-25T08:02:03.367Z,100600.25
2023-04-25T08:04:32.506Z,100600.94
2023-04-25T08:07:05.774Z,100602.22
2023-04-25T08:09:41.381Z,100604.19
2023-04-25T08:12:22.976Z,100609.31
2023-04-25T08:14:52.500Z,100614.31
2023-04-25T08:17:20.394Z,100612.81
2023-04-25T08:19:54.889Z,100617.03
2023-04-25T08:22:33.054Z,100621.88
2023-04-25T08:25:22.968Z,100626.03
2023-04-25T08:27:50.965Z,100623.38
2023-04-25T08:30:22.773Z,100625.75
2023-04-25T08:32:52.096Z,100638.50
2023-04-25T08:35:28.212Z,100626.16
2023-04-25T08:37:58.911Z,100635.91
2023-04-25T08:40:30.979Z,100629.56
2023-04-25T08:43:05.312Z,100638.69
2023-04-25T08:45:34.905Z,100633.28
2023-04-25T08:48:03.259Z,100633.50
2023-04-25T08:50:31.964Z,100639.59
2023-04-25T08:53:05.346Z,100650.91
2023-04-25T08:55:33.884Z,100657.91
2023-04-25T08:58:03.960Z,100658.47
2023-04-25T09:00:32.584Z,100660.41
2023-04-25T09:03:01.540Z,100664.72
2023-04-25T09:05:34.975Z,100669.28
2023-04-25T09:08:04.769Z,100668.00
2023-04-25T09:13:07.915Z,100679.13
2023-04-25T09:15:50.748Z,100671.72
2023-04-25T09:18:37.417Z,100678.28
2023-04-25T09:21:15.294Z,100677.19
2023-04-25T09:23:49.862Z,100675.91
2023-04-25T09:26:20.941Z,100680.22
2023-04-25T09:28:49.898Z,100685.78
2023-04-25T09:31:25.332Z,100684.41
2023-04-25T09:34:02.352Z,100692.97
2023-04-25T09:36:36.610Z,100692.84
2023-04-25T09:39:24.924Z,100696.75
2023-04-25T09:42:01.320Z,100703.44
2023-04-25T09:44:29.894Z,100699.72
2023-04-25T09:47:01.412Z,100708.91
2023-04-25T09:49:31.305Z,100705.63
2023-04-25T09:52:16.304Z,100704.97
2023-04-25T09:54:56.014Z,100708.53
2023-04-25T09:57:33.888Z,100710.81
2023-04-25T10:00:05.716Z,100712.06
2023-04-25T10:05:56.894Z,100722.06
2023-04-25T10:08:27.759Z,100719.25
2023-04-25T10:10:57.622Z,100714.41
2023-04-25T10:13:25.890Z,100720.97
2023-04-25T10:16:13.274Z,100714.53
2023-04-25T10:19:00.887Z,100723.97
2023-04-25T10:21:33.539Z,100718.72
2023-04-25T10:24:01.972Z,100727.06
2023-04-25T10:26:31.377Z,100733.59
2023-04-25T10:29:00.887Z,100723.78
2023-04-25T10:31:32.623Z,100735.47
2023-04-25T10:34:01.886Z,100730.69
2023-04-25T10:36:33.882Z,100744.41
2023-04-25T10:39:08.361Z,100741.81
2023-04-25T10:41:49.867Z,100747.28
2023-04-25T10:44:17.498Z,100743.38
2023-04-25T10:46:47.223Z,100745.47
2023-04-25T10:49:32.994Z,100740.41
2023-04-25T10:52:16.556Z,100750.09
2023-04-25T10:54:47.895Z,100742.41
2023-04-25T10:57:41.160Z,100749.66
2023-04-25T11:00:12.791Z,100746.16
2023-04-25T11:02:44.054Z,100747.06
2023-04-25T11:05:12.959Z,100743.44
2023-04-25T11:08:03.890Z,100743.97
2023-04-25T11:10:36.276Z,100749.84
2023-04-25T11:13:05.935Z,100751.75
2023-04-25T11:15:33.907Z,100752.59
2023-04-25T11:18:09.399Z,100759.44
2023-04-25T11:20:38.877Z,100759.25
2023-04-25T11:23:07.932Z,100762.44
2023-04-25T11:25:38.516Z,100767.63
2023-04-25T11:28:08.723Z,100769.50
2023-04-25T11:30:36.899Z,100777.41
2023-04-25T11:33:05.563Z,100773.72
2023-04-25T11:35:34.459Z,100769.09
2023-04-25T11:38:04.312Z,100781.44
2023-04-25T11:40:33.381Z,100784.34
2023-04-25T11:43:02.893Z,100783.25
2023-04-25T11:45:33.074Z,100790.75
2023-04-25T11:48:01.153Z,100787.41
2023-04-25T11:50:30.888Z,100791.25
2023-04-25T11:52:59.378Z,100791.97
2023-04-25T11:55:27.367Z,100790.38
2023-04-25T11:57:55.973Z,100794.91
2023-04-25T12:00:24.878Z,100787.16
2023-04-25T12:02:56.005Z,100785.34
2023-04-25T12:05:32.587Z,100788.13
2023-04-25T12:08:12.427Z,100796.94
2023-04-25T12:10:42.088Z,100794.19
2023-04-25T12:13:24.330Z,100797.31
2023-04-25T12:15:52.356Z,100798.38
2023-04-25T12:18:25.948Z,100799.94
2023-04-25T12:20:55.195Z,100809.09
2023-04-25T12:23:28.951Z,100804.22
2023-04-25T12:26:03.716Z,100802.56
2023-04-25T12:28:34.128Z,100796.22
2023-04-25T12:31:04.371Z,100803.91
2023-04-25T12:33:35.940Z,100813.03
2023-04-25T12:36:09.616Z,100808.81
2023-04-25T12:38:38.987Z,100813.50
2023-04-25T12:41:08.802Z,100804.03
2023-04-25T12:43:37.496Z,100800.09
2023-04-25T12:46:06.047Z,100800.97
2023-04-25T12:48:35.111Z,100813.50
2023-04-25T12:51:03.316Z,100806.88
2023-04-25T12:53:32.266Z,100813.03
2023-04-25T12:56:00.840Z,100811.97
2023-04-25T12:58:28.468Z,100806.34
2023-04-25T13:00:56.068Z,100808.22
2023-04-25T13:03:25.583Z,100810.47
2023-04-25T13:05:55.907Z,100808.81
2023-04-25T13:08:24.427Z,100811.09
2023-04-25T13:10:52.033Z,100818.38
2023-04-25T13:13:21.220Z,100808.31
2023-04-25T13:15:48.812Z,100807.94
2023-04-25T13:18:17.105Z,100805.16
2023-04-25T13:20:44.790Z,100806.97
2023-04-25T13:23:15.754Z,100806.28
2023-04-25T13:25:43.336Z,100808.41
2023-04-25T13:28:12.891Z,100801.69
2023-04-25T13:30:41.906Z,100813.50
2023-04-25T13:33:09.927Z,100815.44
2023-04-25T13:35:38.613Z,100810.94
2023-04-25T13:38:06.513Z,100807.41
2023-04-25T13:40:35.732Z,100801.53
2023-04-25T13:45:56.310Z,100847.09
2023-04-25T13:48:24.239Z,100846.50
2023-04-25T13:50:52.025Z,100840.84
2023-04-25T13:53:20.655Z,100847.50
2023-04-25T13:55:49.908Z,100840.19
2023-04-25T13:58:17.588Z,100835.59
2023-04-25T14:00:46.902Z,100836.91
2023-04-25T14:03:14.611Z,100830.16
2023-04-25T14:05:42.909Z,100834.66
2023-04-25T14:08:11.807Z,100833.81
2023-04-25T14:10:40.505Z,100847.41
2023-04-25T14:13:10.798Z,100831.16
2023-04-25T14:15:39.052Z,100820.19
2023-04-25T14:18:06.961Z,100824.88
2023-04-25T14:20:35.361Z,100821.75
2023-04-25T14:23:03.835Z,100817.69
2023-04-25T14:25:34.991Z,100813.59
2023-04-25T14:28:02.799Z,100817.69
2023-04-25T14:30:32.861Z,100810.09
2023-04-25T14:33:00.907Z,100809.72
2023-04-25T14:35:28.677Z,100808.38
2023-04-25T14:37:56.305Z,100815.25
2023-04-25T14:40:24.658Z,100815.84
2023-04-25T14:42:52.727Z,100821.75
2023-04-25T14:45:21.632Z,100828.34
2023-04-25T14:47:51.112Z,100821.75
2023-04-25T14:50:19.900Z,100828.75
2023-04-25T14:52:48.964Z,100827.50
2023-04-25T14:55:16.542Z,100829.75
2023-04-25T14:57:44.112Z,100833.72
2023-04-25T15:00:17.059Z,100829.22
2023-04-25T15:02:45.093Z,100846.84
2023-04-25T15:05:14.892Z,100849.94
2023-04-25T15:07:42.954Z,100846.03
2023-04-25T15:10:14.540Z,100844.63
2023-04-25T15:12:42.928Z,100850.22
2023-04-25T15:15:14.288Z,100859.75
2023-04-25T15:17:46.932Z,100858.59
2023-04-25T15:20:19.001Z,100861.94
2023-04-25T15:22:49.594Z,100862.28
2023-04-25T15:25:18.759Z,100874.16
2023-04-25T15:27:49.268Z,100865.06
2023-04-25T15:30:18.202Z,100866.47
2023-04-25T15:32:47.442Z,100862.31
2023-04-25T15:35:16.194Z,100867.94
2023-04-25T15:37:46.061Z,100872.63
2023-04-25T15:40:17.446Z,100874.31
2023-04-25T15:42:47.738Z,100874.00
2023-04-25T15:45:17.739Z,100871.72
2023-04-25T15:47:46.191Z,100870.97
2023-04-25T15:50:15.796Z,100868.78
2023-04-25T15:52:45.085Z,100872.16
2023-04-25T15:55:14.091Z,100872.03
2023-04-25T15:57:43.989Z,100877.53
2023-04-25T16:00:13.201Z,100869.78
2023-04-25T16:02:42.272Z,100877.44
2023-04-25T16:05:12.102Z,100865.81
2023-04-25T16:07:39.952Z,100880.78
2023-04-25T16:10:10.983Z,100876.13
2023-04-25T16:12:39.646Z,100876.56
2023-04-25T16:15:08.118Z,100872.88
2023-04-25T16:17:36.061Z,100883.19
2023-04-25T16:20:10.057Z,100875.81
2023-04-25T16:22:39.809Z,100876.03
2023-04-25T16:25:09.757Z,100881.38
2023-04-25T16:27:39.941Z,100884.25
2023-04-25T16:30:09.222Z,100887.44
2023-04-25T16:32:37.799Z,100883.09
2023-04-25T16:35:06.389Z,100882.63
2023-04-25T16:37:33.957Z,100878.88
2023-04-25T16:40:01.695Z,100890.03
2023-04-25T16:42:30.645Z,100897.53
2023-04-25T16:44:59.909Z,100899.19
2023-04-25T16:47:27.479Z,100915.13
2023-04-25T16:49:55.977Z,100915.94
2023-04-25T16:52:23.805Z,100926.97
2023-04-25T16:54:51.513Z,100920.59
2023-04-25T16:57:19.120Z,100910.56
2023-04-25T16:59:49.762Z,100924.81
2023-04-25T17:02:17.547Z,100923.97
2023-04-25T17:04:45.449Z,100926.63
2023-04-25T17:07:13.169Z,100929.41
2023-04-25T17:09:40.903Z,100923.63
2023-04-25T17:12:09.457Z,100923.28
2023-04-25T17:14:37.204Z,100926.06
2023-04-25T17:17:06.848Z,100923.88
2023-04-25T17:19:35.469Z,100933.75
2023-04-25T17:22:03.300Z,100937.38
2023-04-25T17:24:31.062Z,100939.66
2023-04-25T17:27:03.361Z,100939.19
2023-04-25T17:29:32.788Z,100953.75
2023-04-25T17:32:00.393Z,100957.03
2023-04-25T17:34:31.631Z,100956.41
2023-04-25T17:37:00.066Z,100949.91
2023-04-25T17:39:27.788Z,100962.19
2023-04-25T17:41:55.584Z,100969.28
2023-04-25T17:44:23.906Z,100967.25
2023-04-25T17:46:51.481Z,100968.47
2023-04-25T17:49:19.074Z,100976.63
2023-04-25T17:51:48.002Z,100964.25
2023-04-25T17:54:15.642Z,100965.31
2023-04-25T17:56:44.687Z,100958.06
2023-04-25T17:59:12.631Z,100964.25
2023-04-25T18:01:42.299Z,100960.97
2023-04-25T18:04:13.415Z,100966.28
2023-04-25T18:06:41.926Z,100962.78
2023-04-25T18:09:17.318Z,100970.03
2023-04-25T18:11:45.930Z,100976.25
2023-04-25T18:14:15.097Z,100980.72
2023-04-25T18:16:43.609Z,100982.88
2023-04-25T18:19:15.515Z,100989.47
2023-04-25T18:21:45.243Z,100995.47
2023-04-25T18:24:14.228Z,101002.28
2023-04-25T18:26:42.078Z,101005.16
2023-04-25T18:29:16.237Z,101014.16
2023-04-25T18:31:49.966Z,101014.28
2023-04-25T18:34:20.354Z,101018.03
2023-04-25T18:36:47.929Z,101019.09
2023-04-25T18:39:22.560Z,101022.94
2023-04-25T18:41:59.310Z,101028.78
2023-04-25T18:44:32.275Z,101028.38
2023-04-25T18:47:01.042Z,101037.41
2023-04-25T18:49:28.909Z,101039.03
2023-04-25T18:51:57.365Z,101047.22
2023-04-25T18:54:26.687Z,101042.34
2023-04-25T18:56:55.617Z,101051.69
2023-04-25T18:59:23.995Z,101052.25
2023-04-25T19:01:54.181Z,101062.41
2023-04-25T19:04:22.304Z,101062.97
2023-04-25T19:06:51.902Z,101070.03
2023-04-25T19:09:20.425Z,101072.91
2023-04-25T19:11:49.419Z,101070.56
2023-04-25T19:14:17.054Z,101080.63
2023-04-25T19:16:44.692Z,101077.13
2023-04-25T19:19:12.476Z,101080.53
2023-04-25T19:21:41.516Z,101074.47
2023-04-25T19:24:09.548Z,101070.56
2023-04-25T19:26:37.121Z,101073.41
2023-04-25T19:29:08.752Z,101076.16
2023-04-25T19:31:38.174Z,101075.31
2023-04-25T19:34:07.529Z,101084.41
2023-04-25T19:36:37.022Z,101081.25
2023-04-25T19:39:05.792Z,101088.34
2023-04-25T19:41:35.717Z,101083.56
2023-04-25T19:44:07.550Z,101086.31
2023-04-25T19:46:37.248Z,101089.16
2023-04-25T19:49:07.489Z,101092.75
2023-04-25T19:51:36.421Z,101089.38
2023-04-25T19:54:04.172Z,101096.66
2023-04-25T19:56:32.460Z,101098.56
2023-04-25T19:59:00.219Z,101096.22
2023-04-25T20:01:30.948Z,101099.06
2023-04-25T20:03:58.636Z,101103.94
2023-04-25T20:06:27.244Z,101096.06
2023-04-25T20:08:54.968Z,101103.28
2023-04-25T20:11:22.711Z,101095.34
2023-04-25T20:13:50.525Z,101103.28
2023-04-25T20:16:20.308Z,101093.53
2023-04-25T20:18:50.152Z,101102.53
2023-04-25T20:21:18.259Z,101102.59
2023-04-25T20:23:47.077Z,101113.41
2023-04-25T20:26:16.642Z,101114.34
2023-04-25T20:28:46.259Z,101113.41
2023-04-25T20:31:14.582Z,101110.75
2023-04-25T20:33:43.635Z,101110.66
2023-04-25T20:36:12.911Z,101109.91
2023-04-25T20:38:40.635Z,101105.56
2023-04-25T20:41:08.287Z,101110.88
2023-04-25T20:43:38.101Z,101109.25
2023-04-25T20:46:06.997Z,101107.66
2023-04-25T20:48:35.540Z,101115.78
2023-04-25T20:51:03.954Z,101114.31
2023-04-25T20:53:33.084Z,101114.59
2023-04-25T20:56:00.687Z,101113.94
2023-04-25T20:58:28.796Z,101118.66
2023-04-25T21:00:56.936Z,101113.78
2023-04-25T21:03:26.391Z,101114.94
2023-04-25T21:05:55.516Z,101115.34
2023-04-25T21:08:23.228Z,101123.66
2023-04-25T21:10:53.482Z,101116.94
2023-04-25T21:13:21.329Z,101121.63
2023-04-25T21:15:49.436Z,101114.94
2023-04-25T21:18:17.417Z,101127.59
2023-04-25T21:20:46.054Z,101128.81
2023-04-25T21:23:13.747Z,101132.56
2023-04-25T21:25:42.187Z,101129.47
2023-04-25T21:28:12.741Z,101128.06
2023-04-25T21:30:41.123Z,101125.78
2023-04-25T21:33:08.906Z,101132.28
2023-04-25T21:35:37.036Z,101133.59
2023-04-25T21:38:07.355Z,101133.88
2023-04-25T21:40:36.937Z,101138.69
2023-04-25T21:43:07.430Z,101130.19
2023-04-25T21:45:51.402Z,101141.94
2023-04-25T21:48:24.895Z,101144.09
2023-04-25T21:50:55.604Z,101136.56
2023-04-25T21:53:23.221Z,101142.09
2023-04-25T21:55:50.809Z,101148.56
2023-04-25T21:58:18.404Z,101135.75
2023-04-25T22:00:48.214Z,101138.75
2023-04-25T22:03:16.359Z,101143.47
2023-04-25T22:05:44.187Z,101138.44
2023-04-25T22:08:12.028Z,101144.91
2023-04-25T22:10:40.361Z,101151.28
2023-04-25T22:13:09.975Z,101149.75
2023-04-25T22:15:38.058Z,101151.84
2023-04-25T22:18:07.877Z,101153.03
2023-04-25T22:20:38.938Z,101151.59
2023-04-25T22:23:06.543Z,101154.56
2023-04-25T22:25:34.383Z,101153.97
2023-04-25T22:28:02.377Z,101159.47
2023-04-25T22:30:31.231Z,101161.59
2023-04-25T22:32:59.066Z,101161.94
2023-04-25T22:35:28.181Z,101163.28
2023-04-25T22:37:55.894Z,101171.59
2023-04-25T22:40:24.011Z,101177.19
2023-04-25T22:42:53.902Z,101187.22
2023-04-25T22:45:21.808Z,101183.22
2023-04-25T22:47:51.530Z,101173.00
2023-04-25T22:50:19.395Z,101189.13
2023-04-25T22:52:48.846Z,101187.66
2023-04-25T22:55:17.446Z,101185.34
2023-04-25T22:57:45.903Z,101188.34
2023-04-25T23:00:19.692Z,101199.28
2023-04-25T23:02:49.560Z,101200.44
2023-04-25T23:05:18.865Z,101200.75
2023-04-25T23:07:49.282Z,101197.44
2023-04-25T23:10:17.747Z,101203.78
2023-04-25T23:12:46.690Z,101206.53
2023-04-25T23:15:14.601Z,101209.34
2023-04-25T23:17:42.565Z,101208.88
2023-04-25T23:20:12.065Z,101206.53
2023-04-25T23:22:41.004Z,101196.56
2023-04-25T23:25:11.760Z,101210.06
2023-04-25T23:27:41.595Z,101205.09
2023-04-25T23:30:10.582Z,101208.88
2023-04-25T23:32:38.788Z,101202.94
2023-04-25T23:35:07.564Z,101206.63
2023-04-25T23:37:36.918Z,101204.09
2023-04-25T23:40:08.266Z,101210.31
2023-04-25T23:42:38.960Z,101205.22
2023-04-25T23:45:08.424Z,101208.81
2023-04-25T23:47:38.016Z,101206.38
2023-04-25T23:50:07.997Z,101203.88
2023-04-25T23:52:36.923Z,101206.66
2023-04-25T23:55:30.762Z,101201.69
2023-04-25T23:58:00.359Z,101198.50
